Terminal Aerodrome Forecast
Issued by NWS

Home | Current Version | Previous Version | Graphics & Text | Print | Product List | Glossary On
Versions: 1 2 3 4 5 6 7 8 9 10 11 12 13 14 15 16 17
000
FTUS43 KGRB 022326
TAFCWA
TAF
KCWA 022326Z 0300/0324 30006KT P6SM OVC018
     FM030600 28005KT P6SM OVC014
     FM031600 27004KT P6SM BKN025=

USA.gov is the U.S. government's official web portal to all federal, state and local government web resources and services.